sensor_id;sensor_type;location;lat;lon;timestamp;P1;durP1;ratioP1;P2;durP2;ratioP2
19231;SDS011;9750;48.730;10.294;2023-07-30T00:02:08;8.03;;;7.27;;
19231;SDS011;9750;48.730;10.294;2023-07-30T00:04:36;7.17;;;6.43;;
19231;SDS011;9750;48.730;10.294;2023-07-30T00:07:03;6.53;;;5.93;;
19231;SDS011;9750;48.730;10.294;2023-07-30T00:09:30;8.10;;;7.30;;
19231;SDS011;9750;48.730;10.294;2023-07-30T00:11:58;7.90;;;6.70;;
19231;SDS011;9750;48.730;10.294;2023-07-30T00:14:27;9.03;;;6.87;;
19231;SDS011;9750;48.730;10.294;2023-07-30T00:16:54;6.67;;;5.93;;
19231;SDS011;9750;48.730;10.294;2023-07-30T00:19:23;7.60;;;6.80;;
19231;SDS011;9750;48.730;10.294;2023-07-30T00:21:50;7.00;;;6.33;;
19231;SDS011;9750;48.730;10.294;2023-07-30T00:24:17;7.93;;;6.70;;
19231;SDS011;9750;48.730;10.294;2023-07-30T00:26:45;7.87;;;6.73;;
19231;SDS011;9750;48.730;10.294;2023-07-30T00:29:12;5.73;;;3.70;;
19231;SDS011;9750;48.730;10.294;2023-07-30T00:31:39;4.97;;;4.20;;
19231;SDS011;9750;48.730;10.294;2023-07-30T00:34:06;3.10;;;2.20;;
19231;SDS011;9750;48.730;10.294;2023-07-30T00:36:35;4.27;;;2.17;;
19231;SDS011;9750;48.730;10.294;2023-07-30T00:39:02;3.07;;;2.10;;
19231;SDS011;9750;48.730;10.294;2023-07-30T00:41:30;2.97;;;1.97;;
19231;SDS011;9750;48.730;10.294;2023-07-30T00:43:57;4.10;;;2.10;;
19231;SDS011;9750;48.730;10.294;2023-07-30T00:46:24;2.67;;;1.87;;
19231;SDS011;9750;48.730;10.294;2023-07-30T00:48:52;3.67;;;2.10;;
19231;SDS011;9750;48.730;10.294;2023-07-30T00:51:19;3.10;;;2.03;;
19231;SDS011;9750;48.730;10.294;2023-07-30T00:53:48;2.40;;;2.10;;
19231;SDS011;9750;48.730;10.294;2023-07-30T00:56:16;2.50;;;2.10;;
19231;SDS011;9750;48.730;10.294;2023-07-30T00:58:43;2.80;;;2.57;;
19231;SDS011;9750;48.730;10.294;2023-07-30T01:01:13;2.50;;;2.07;;
19231;SDS011;9750;48.730;10.294;2023-07-30T01:03:41;4.13;;;2.63;;
19231;SDS011;9750;48.730;10.294;2023-07-30T01:06:09;4.97;;;2.73;;
19231;SDS011;9750;48.730;10.294;2023-07-30T01:08:36;4.60;;;2.40;;
19231;SDS011;9750;48.730;10.294;2023-07-30T01:11:05;4.80;;;2.40;;
19231;SDS011;9750;48.730;10.294;2023-07-30T01:13:34;2.33;;;2.00;;
19231;SDS011;9750;48.730;10.294;2023-07-30T01:16:02;1.80;;;1.70;;
19231;SDS011;9750;48.730;10.294;2023-07-30T01:18:32;5.10;;;1.90;;
19231;SDS011;9750;48.730;10.294;2023-07-30T01:21:00;2.87;;;2.03;;
19231;SDS011;9750;48.730;10.294;2023-07-30T01:23:27;2.07;;;1.77;;
19231;SDS011;9750;48.730;10.294;2023-07-30T01:25:57;2.50;;;1.60;;
19231;SDS011;9750;48.730;10.294;2023-07-30T01:28:29;2.00;;;1.80;;
19231;SDS011;9750;48.730;10.294;2023-07-30T01:31:03;2.50;;;1.53;;
19231;SDS011;9750;48.730;10.294;2023-07-30T01:33:32;2.90;;;1.83;;
19231;SDS011;9750;48.730;10.294;2023-07-30T01:36:01;8.00;;;1.80;;
19231;SDS011;9750;48.730;10.294;2023-07-30T01:38:29;1.70;;;1.60;;
19231;SDS011;9750;48.730;10.294;2023-07-30T01:40:57;1.70;;;1.60;;
19231;SDS011;9750;48.730;10.294;2023-07-30T01:43:24;2.17;;;1.70;;
19231;SDS011;9750;48.730;10.294;2023-07-30T01:45:52;1.80;;;1.40;;
19231;SDS011;9750;48.730;10.294;2023-07-30T01:48:19;2.30;;;1.50;;
19231;SDS011;9750;48.730;10.294;2023-07-30T01:50:46;3.07;;;1.50;;
19231;SDS011;9750;48.730;10.294;2023-07-30T01:53:15;1.40;;;1.30;;
19231;SDS011;9750;48.730;10.294;2023-07-30T01:55:42;3.47;;;1.70;;
19231;SDS011;9750;48.730;10.294;2023-07-30T01:58:11;1.50;;;1.40;;
19231;SDS011;9750;48.730;10.294;2023-07-30T02:00:38;3.43;;;1.73;;
19231;SDS011;9750;48.730;10.294;2023-07-30T02:03:06;2.63;;;1.80;;
19231;SDS011;9750;48.730;10.294;2023-07-30T02:05:33;3.23;;;1.70;;
19231;SDS011;9750;48.730;10.294;2023-07-30T02:08:00;1.70;;;1.60;;
19231;SDS011;9750;48.730;10.294;2023-07-30T02:10:29;1.80;;;1.33;;
19231;SDS011;9750;48.730;10.294;2023-07-30T02:12:56;2.60;;;1.47;;
19231;SDS011;9750;48.730;10.294;2023-07-30T02:15:23;1.70;;;1.57;;
19231;SDS011;9750;48.730;10.294;2023-07-30T02:17:50;1.37;;;1.27;;
19231;SDS011;9750;48.730;10.294;2023-07-30T02:20:18;1.40;;;1.30;;
19231;SDS011;9750;48.730;10.294;2023-07-30T02:22:45;1.50;;;1.33;;
19231;SDS011;9750;48.730;10.294;2023-07-30T02:25:13;1.70;;;1.40;;
19231;SDS011;9750;48.730;10.294;2023-07-30T02:27:41;2.27;;;1.50;;
19231;SDS011;9750;48.730;10.294;2023-07-30T02:30:09;2.33;;;1.40;;
19231;SDS011;9750;48.730;10.294;2023-07-30T02:32:37;1.80;;;1.60;;
19231;SDS011;9750;48.730;10.294;2023-07-30T02:35:04;1.80;;;1.60;;
19231;SDS011;9750;48.730;10.294;2023-07-30T02:37:32;1.90;;;1.80;;
19231;SDS011;9750;48.730;10.294;2023-07-30T02:39:59;2.10;;;1.90;;
19231;SDS011;9750;48.730;10.294;2023-07-30T02:42:29;2.10;;;1.87;;
19231;SDS011;9750;48.730;10.294;2023-07-30T02:44:58;2.97;;;2.00;;
19231;SDS011;9750;48.730;10.294;2023-07-30T02:47:25;2.10;;;1.73;;
19231;SDS011;9750;48.730;10.294;2023-07-30T02:49:53;1.90;;;1.70;;
19231;SDS011;9750;48.730;10.294;2023-07-30T02:52:20;1.80;;;1.70;;
19231;SDS011;9750;48.730;10.294;2023-07-30T02:54:47;2.67;;;2.27;;
19231;SDS011;9750;48.730;10.294;2023-07-30T02:57:15;2.80;;;2.13;;
19231;SDS011;9750;48.730;10.294;2023-07-30T02:59:42;2.60;;;2.40;;
19231;SDS011;9750;48.730;10.294;2023-07-30T03:02:10;3.30;;;2.97;;
19231;SDS011;9750;48.730;10.294;2023-07-30T03:04:38;3.47;;;2.87;;
19231;SDS011;9750;48.730;10.294;2023-07-30T03:07:05;3.33;;;3.03;;
19231;SDS011;9750;48.730;10.294;2023-07-30T03:09:33;4.37;;;3.13;;
19231;SDS011;9750;48.730;10.294;2023-07-30T03:12:00;3.83;;;3.43;;
19231;SDS011;9750;48.730;10.294;2023-07-30T03:14:27;3.40;;;3.10;;
19231;SDS011;9750;48.730;10.294;2023-07-30T03:16:56;3.73;;;3.43;;
19231;SDS011;9750;48.730;10.294;2023-07-30T03:19:24;4.50;;;3.70;;
19231;SDS011;9750;48.730;10.294;2023-07-30T03:21:52;5.00;;;3.37;;
19231;SDS011;9750;48.730;10.294;2023-07-30T03:24:19;3.93;;;3.53;;
19231;SDS011;9750;48.730;10.294;2023-07-30T03:26:46;3.70;;;3.30;;
19231;SDS011;9750;48.730;10.294;2023-07-30T03:29:14;6.00;;;3.73;;
19231;SDS011;9750;48.730;10.294;2023-07-30T03:31:41;4.30;;;3.90;;
19231;SDS011;9750;48.730;10.294;2023-07-30T03:34:08;3.90;;;3.50;;
19231;SDS011;9750;48.730;10.294;2023-07-30T03:36:37;4.30;;;3.90;;
19231;SDS011;9750;48.730;10.294;2023-07-30T03:39:04;3.57;;;3.27;;
19231;SDS011;9750;48.730;10.294;2023-07-30T03:41:31;4.77;;;4.37;;
19231;SDS011;9750;48.730;10.294;2023-07-30T03:44:00;4.47;;;3.90;;
19231;SDS011;9750;48.730;10.294;2023-07-30T03:46:27;3.80;;;3.40;;
19231;SDS011;9750;48.730;10.294;2023-07-30T03:48:55;4.03;;;3.33;;
19231;SDS011;9750;48.730;10.294;2023-07-30T03:51:22;4.37;;;3.97;;
19231;SDS011;9750;48.730;10.294;2023-07-30T03:53:51;4.47;;;3.43;;
19231;SDS011;9750;48.730;10.294;2023-07-30T03:56:18;3.70;;;3.27;;
19231;SDS011;9750;48.730;10.294;2023-07-30T03:58:45;3.87;;;3.53;;
19231;SDS011;9750;48.730;10.294;2023-07-30T04:01:12;4.23;;;3.83;;
19231;SDS011;9750;48.730;10.294;2023-07-30T04:03:40;3.97;;;3.50;;
19231;SDS011;9750;48.730;10.294;2023-07-30T04:06:07;4.47;;;3.13;;
19231;SDS011;9750;48.730;10.294;2023-07-30T04:08:34;3.93;;;3.37;;
19231;SDS011;9750;48.730;10.294;2023-07-30T04:11:03;4.10;;;3.37;;
19231;SDS011;9750;48.730;10.294;2023-07-30T04:13:31;4.27;;;3.87;;
19231;SDS011;9750;48.730;10.294;2023-07-30T04:15:58;4.23;;;3.70;;
19231;SDS011;9750;48.730;10.294;2023-07-30T04:18:25;4.47;;;3.57;;
19231;SDS011;9750;48.730;10.294;2023-07-30T04:20:53;3.97;;;3.67;;
19231;SDS011;9750;48.730;10.294;2023-07-30T04:23:21;4.37;;;3.93;;
19231;SDS011;9750;48.730;10.294;2023-07-30T04:25:48;4.00;;;3.70;;
19231;SDS011;9750;48.730;10.294;2023-07-30T04:28:17;5.80;;;3.60;;
19231;SDS011;9750;48.730;10.294;2023-07-30T04:30:45;5.03;;;3.70;;
19231;SDS011;9750;48.730;10.294;2023-07-30T04:33:12;7.03;;;3.70;;
19231;SDS011;9750;48.730;10.294;2023-07-30T04:35:40;4.17;;;3.33;;
19231;SDS011;9750;48.730;10.294;2023-07-30T04:38:07;3.97;;;3.67;;
19231;SDS011;9750;48.730;10.294;2023-07-30T04:40:34;4.10;;;3.67;;
19231;SDS011;9750;48.730;10.294;2023-07-30T04:43:01;4.20;;;3.40;;
19231;SDS011;9750;48.730;10.294;2023-07-30T04:45:30;3.67;;;3.37;;
19231;SDS011;9750;48.730;10.294;2023-07-30T04:47:57;4.43;;;4.00;;
19231;SDS011;9750;48.730;10.294;2023-07-30T04:50:25;3.93;;;3.63;;
19231;SDS011;9750;48.730;10.294;2023-07-30T04:52:52;5.67;;;4.27;;
19231;SDS011;9750;48.730;10.294;2023-07-30T04:55:19;4.57;;;4.13;;
19231;SDS011;9750;48.730;10.294;2023-07-30T04:57:46;4.90;;;4.10;;
19231;SDS011;9750;48.730;10.294;2023-07-30T05:00:14;4.30;;;3.90;;
19231;SDS011;9750;48.730;10.294;2023-07-30T05:02:42;4.97;;;3.50;;
19231;SDS011;9750;48.730;10.294;2023-07-30T05:05:10;3.93;;;3.53;;
19231;SDS011;9750;48.730;10.294;2023-07-30T05:07:37;4.07;;;3.70;;
19231;SDS011;9750;48.730;10.294;2023-07-30T05:10:05;4.33;;;3.93;;
19231;SDS011;9750;48.730;10.294;2023-07-30T05:12:35;4.50;;;4.00;;
19231;SDS011;9750;48.730;10.294;2023-07-30T05:15:03;4.30;;;3.90;;
19231;SDS011;9750;48.730;10.294;2023-07-30T05:17:31;4.50;;;4.10;;
19231;SDS011;9750;48.730;10.294;2023-07-30T05:20:00;4.40;;;4.00;;
19231;SDS011;9750;48.730;10.294;2023-07-30T05:22:27;4.43;;;4.03;;
19231;SDS011;9750;48.730;10.294;2023-07-30T05:24:54;4.53;;;4.10;;
19231;SDS011;9750;48.730;10.294;2023-07-30T05:27:21;6.70;;;4.07;;
19231;SDS011;9750;48.730;10.294;2023-07-30T05:29:49;5.07;;;4.30;;
19231;SDS011;9750;48.730;10.294;2023-07-30T05:32:16;5.60;;;4.33;;
19231;SDS011;9750;48.730;10.294;2023-07-30T05:34:43;4.77;;;4.30;;
19231;SDS011;9750;48.730;10.294;2023-07-30T05:37:12;4.77;;;3.90;;
19231;SDS011;9750;48.730;10.294;2023-07-30T05:39:39;4.03;;;3.70;;
19231;SDS011;9750;48.730;10.294;2023-07-30T05:42:06;3.77;;;3.47;;
19231;SDS011;9750;48.730;10.294;2023-07-30T05:44:34;4.37;;;3.97;;
19231;SDS011;9750;48.730;10.294;2023-07-30T05:47:01;4.73;;;3.60;;
19231;SDS011;9750;48.730;10.294;2023-07-30T05:49:28;3.97;;;3.57;;
19231;SDS011;9750;48.730;10.294;2023-07-30T05:51:56;5.03;;;4.03;;
19231;SDS011;9750;48.730;10.294;2023-07-30T05:54:24;4.27;;;3.63;;
19231;SDS011;9750;48.730;10.294;2023-07-30T05:56:52;4.43;;;4.03;;
19231;SDS011;9750;48.730;10.294;2023-07-30T05:59:19;4.70;;;4.20;;
19231;SDS011;9750;48.730;10.294;2023-07-30T06:01:46;4.80;;;4.40;;
19231;SDS011;9750;48.730;10.294;2023-07-30T06:04:14;4.30;;;3.90;;
19231;SDS011;9750;48.730;10.294;2023-07-30T06:06:41;4.20;;;3.67;;
19231;SDS011;9750;48.730;10.294;2023-07-30T06:09:08;3.80;;;3.50;;
19231;SDS011;9750;48.730;10.294;2023-07-30T06:11:38;5.07;;;4.57;;
19231;SDS011;9750;48.730;10.294;2023-07-30T06:14:05;3.80;;;3.50;;
19231;SDS011;9750;48.730;10.294;2023-07-30T06:16:32;4.77;;;3.70;;
19231;SDS011;9750;48.730;10.294;2023-07-30T06:18:59;6.20;;;4.17;;
19231;SDS011;9750;48.730;10.294;2023-07-30T06:21:27;4.30;;;3.90;;
19231;SDS011;9750;48.730;10.294;2023-07-30T06:23:54;4.67;;;3.77;;
19231;SDS011;9750;48.730;10.294;2023-07-30T06:26:21;3.63;;;3.33;;
19231;SDS011;9750;48.730;10.294;2023-07-30T06:28:50;4.00;;;3.67;;
19231;SDS011;9750;48.730;10.294;2023-07-30T06:31:17;4.17;;;3.77;;
19231;SDS011;9750;48.730;10.294;2023-07-30T06:33:44;4.00;;;3.60;;
19231;SDS011;9750;48.730;10.294;2023-07-30T06:36:12;5.87;;;3.20;;
19231;SDS011;9750;48.730;10.294;2023-07-30T06:38:39;4.83;;;3.20;;
19231;SDS011;9750;48.730;10.294;2023-07-30T06:41:06;3.13;;;2.83;;
19231;SDS011;9750;48.730;10.294;2023-07-30T06:43:33;3.10;;;2.80;;
19231;SDS011;9750;48.730;10.294;2023-07-30T06:46:02;3.20;;;2.90;;
19231;SDS011;9750;48.730;10.294;2023-07-30T06:48:30;3.70;;;3.33;;
19231;SDS011;9750;48.730;10.294;2023-07-30T06:50:57;4.53;;;3.23;;
19231;SDS011;9750;48.730;10.294;2023-07-30T06:53:24;3.20;;;2.90;;
19231;SDS011;9750;48.730;10.294;2023-07-30T06:55:51;3.90;;;3.40;;
19231;SDS011;9750;48.730;10.294;2023-07-30T06:58:19;3.37;;;3.07;;
19231;SDS011;9750;48.730;10.294;2023-07-30T07:00:46;4.03;;;2.70;;
19231;SDS011;9750;48.730;10.294;2023-07-30T07:03:15;3.63;;;2.97;;
19231;SDS011;9750;48.730;10.294;2023-07-30T07:05:42;2.87;;;2.63;;
19231;SDS011;9750;48.730;10.294;2023-07-30T07:08:09;3.17;;;2.87;;
19231;SDS011;9750;48.730;10.294;2023-07-30T07:10:37;3.47;;;2.83;;
19231;SDS011;9750;48.730;10.294;2023-07-30T07:13:04;3.20;;;2.90;;
19231;SDS011;9750;48.730;10.294;2023-07-30T07:15:32;3.70;;;2.80;;
19231;SDS011;9750;48.730;10.294;2023-07-30T07:17:59;3.60;;;3.30;;
19231;SDS011;9750;48.730;10.294;2023-07-30T07:20:28;4.37;;;3.30;;
19231;SDS011;9750;48.730;10.294;2023-07-30T07:22:55;3.00;;;2.70;;
19231;SDS011;9750;48.730;10.294;2023-07-30T07:25:22;2.97;;;2.63;;
19231;SDS011;9750;48.730;10.294;2023-07-30T07:30:36;3.70;;;2.60;;
19231;SDS011;9750;48.730;10.294;2023-07-30T07:33:03;2.90;;;2.70;;
19231;SDS011;9750;48.730;10.294;2023-07-30T07:35:33;3.10;;;2.80;;
19231;SDS011;9750;48.730;10.294;2023-07-30T07:38:00;4.07;;;2.90;;
19231;SDS011;9750;48.730;10.294;2023-07-30T07:40:27;2.70;;;2.50;;
19231;SDS011;9750;48.730;10.294;2023-07-30T07:42:54;2.43;;;2.23;;
19231;SDS011;9750;48.730;10.294;2023-07-30T07:45:22;3.20;;;2.37;;
19231;SDS011;9750;48.730;10.294;2023-07-30T07:47:49;2.77;;;2.37;;
19231;SDS011;9750;48.730;10.294;2023-07-30T07:50:16;4.28;;;2.72;;
19231;SDS011;9750;48.730;10.294;2023-07-30T07:52:45;2.70;;;2.50;;
19231;SDS011;9750;48.730;10.294;2023-07-30T07:55:12;3.13;;;2.37;;
19231;SDS011;9750;48.730;10.294;2023-07-30T07:57:40;3.20;;;2.73;;
19231;SDS011;9750;48.730;10.294;2023-07-30T08:00:07;2.77;;;2.43;;
19231;SDS011;9750;48.730;10.294;2023-07-30T08:02:35;2.77;;;2.30;;
19231;SDS011;9750;48.730;10.294;2023-07-30T08:05:03;3.00;;;2.50;;
19231;SDS011;9750;48.730;10.294;2023-07-30T08:07:30;2.63;;;2.43;;
19231;SDS011;9750;48.730;10.294;2023-07-30T08:09:59;2.30;;;2.10;;
19231;SDS011;9750;48.730;10.294;2023-07-30T08:12:26;3.27;;;2.83;;
19231;SDS011;9750;48.730;10.294;2023-07-30T08:14:54;2.50;;;2.30;;
19231;SDS011;9750;48.730;10.294;2023-07-30T08:20:14;2.77;;;2.50;;
19231;SDS011;9750;48.730;10.294;2023-07-30T08:22:42;5.50;;;2.27;;
19231;SDS011;9750;48.730;10.294;2023-07-30T08:25:10;3.70;;;2.37;;
19231;SDS011;9750;48.730;10.294;2023-07-30T08:27:38;2.57;;;2.30;;
19231;SDS011;9750;48.730;10.294;2023-07-30T08:30:05;2.55;;;2.35;;
19231;SDS011;9750;48.730;10.294;2023-07-30T08:32:34;3.57;;;2.57;;
19231;SDS011;9750;48.730;10.294;2023-07-30T08:35:01;2.45;;;2.22;;
19231;SDS011;9750;48.730;10.294;2023-07-30T08:37:28;2.35;;;2.10;;
19231;SDS011;9750;48.730;10.294;2023-07-30T08:39:56;2.97;;;2.40;;
19231;SDS011;9750;48.730;10.294;2023-07-30T08:42:24;2.33;;;2.13;;
19231;SDS011;9750;48.730;10.294;2023-07-30T08:44:52;2.55;;;2.35;;
19231;SDS011;9750;48.730;10.294;2023-07-30T08:47:19;4.32;;;2.38;;
19231;SDS011;9750;48.730;10.294;2023-07-30T08:49:46;2.38;;;2.17;;
19231;SDS011;9750;48.730;10.294;2023-07-30T08:52:13;4.00;;;3.65;;
19231;SDS011;9750;48.730;10.294;2023-07-30T08:54:43;3.00;;;2.40;;
19231;SDS011;9750;48.730;10.294;2023-07-30T08:57:13;2.85;;;2.50;;
19231;SDS011;9750;48.730;10.294;2023-07-30T08:59:47;2.58;;;2.28;;
19231;SDS011;9750;48.730;10.294;2023-07-30T09:02:20;3.72;;;2.53;;
19231;SDS011;9750;48.730;10.294;2023-07-30T09:04:57;3.03;;;2.50;;
19231;SDS011;9750;48.730;10.294;2023-07-30T09:10:04;2.35;;;2.15;;
19231;SDS011;9750;48.730;10.294;2023-07-30T09:12:32;2.92;;;2.13;;
19231;SDS011;9750;48.730;10.294;2023-07-30T09:15:03;2.40;;;2.20;;
19231;SDS011;9750;48.730;10.294;2023-07-30T09:17:32;2.92;;;2.05;;
19231;SDS011;9750;48.730;10.294;2023-07-30T09:20:00;2.70;;;2.30;;
19231;SDS011;9750;48.730;10.294;2023-07-30T09:22:29;2.08;;;1.88;;
19231;SDS011;9750;48.730;10.294;2023-07-30T09:25:00;3.75;;;2.08;;
19231;SDS011;9750;48.730;10.294;2023-07-30T09:27:29;3.10;;;2.00;;
19231;SDS011;9750;48.730;10.294;2023-07-30T09:29:57;2.60;;;2.40;;
19231;SDS011;9750;48.730;10.294;2023-07-30T09:32:30;5.28;;;4.20;;
19231;SDS011;9750;48.730;10.294;2023-07-30T09:35:03;3.50;;;2.53;;
19231;SDS011;9750;48.730;10.294;2023-07-30T09:37:31;3.03;;;2.20;;
19231;SDS011;9750;48.730;10.294;2023-07-30T09:40:06;2.30;;;2.10;;
19231;SDS011;9750;48.730;10.294;2023-07-30T09:42:35;2.27;;;2.07;;
19231;SDS011;9750;48.730;10.294;2023-07-30T09:45:05;3.60;;;2.40;;
19231;SDS011;9750;48.730;10.294;2023-07-30T09:47:34;2.40;;;2.20;;
19231;SDS011;9750;48.730;10.294;2023-07-30T09:50:10;2.33;;;2.13;;
19231;SDS011;9750;48.730;10.294;2023-07-30T09:52:38;3.47;;;2.40;;
19231;SDS011;9750;48.730;10.294;2023-07-30T09:55:07;2.60;;;2.40;;
19231;SDS011;9750;48.730;10.294;2023-07-30T09:57:35;2.87;;;2.57;;
19231;SDS011;9750;48.730;10.294;2023-07-30T10:00:03;3.03;;;2.67;;
19231;SDS011;9750;48.730;10.294;2023-07-30T10:02:31;2.53;;;2.10;;
19231;SDS011;9750;48.730;10.294;2023-07-30T10:05:04;2.77;;;2.53;;
19231;SDS011;9750;48.730;10.294;2023-07-30T10:07:38;2.60;;;2.40;;
19231;SDS011;9750;48.730;10.294;2023-07-30T10:10:11;3.50;;;2.93;;
19231;SDS011;9750;48.730;10.294;2023-07-30T10:12:38;3.43;;;2.87;;
19231;SDS011;9750;48.730;10.294;2023-07-30T10:15:08;2.90;;;2.50;;
19231;SDS011;9750;48.730;10.294;2023-07-30T10:17:35;3.27;;;2.60;;
19231;SDS011;9750;48.730;10.294;2023-07-30T10:20:24;2.80;;;2.60;;
19231;SDS011;9750;48.730;10.294;2023-07-30T10:22:54;4.80;;;4.30;;
19231;SDS011;9750;48.730;10.294;2023-07-30T10:25:23;6.80;;;6.10;;
19231;SDS011;9750;48.730;10.294;2023-07-30T10:27:54;6.53;;;5.47;;
19231;SDS011;9750;48.730;10.294;2023-07-30T10:30:21;2.78;;;2.50;;
19231;SDS011;9750;48.730;10.294;2023-07-30T10:33:00;3.22;;;2.78;;
19231;SDS011;9750;48.730;10.294;2023-07-30T10:35:37;4.45;;;2.70;;
19231;SDS011;9750;48.730;10.294;2023-07-30T10:38:13;2.50;;;2.30;;
19231;SDS011;9750;48.730;10.294;2023-07-30T10:41:01;2.60;;;2.17;;
19231;SDS011;9750;48.730;10.294;2023-07-30T10:43:29;3.28;;;2.55;;
19231;SDS011;9750;48.730;10.294;2023-07-30T10:45:57;2.55;;;2.28;;
19231;SDS011;9750;48.730;10.294;2023-07-30T10:48:34;4.22;;;2.47;;
19231;SDS011;9750;48.730;10.294;2023-07-30T10:51:05;2.45;;;2.25;;
19231;SDS011;9750;48.730;10.294;2023-07-30T10:53:33;2.67;;;2.47;;
19231;SDS011;9750;48.730;10.294;2023-07-30T10:56:02;2.25;;;1.92;;
19231;SDS011;9750;48.730;10.294;2023-07-30T10:58:30;2.42;;;2.22;;
19231;SDS011;9750;48.730;10.294;2023-07-30T11:00:59;2.42;;;2.22;;
19231;SDS011;9750;48.730;10.294;2023-07-30T11:03:28;2.80;;;2.50;;
19231;SDS011;9750;48.730;10.294;2023-07-30T11:05:56;2.47;;;2.20;;
19231;SDS011;9750;48.730;10.294;2023-07-30T11:11:25;2.87;;;2.20;;
19231;SDS011;9750;48.730;10.294;2023-07-30T11:13:52;2.77;;;2.47;;
19231;SDS011;9750;48.730;10.294;2023-07-30T11:16:19;3.03;;;2.30;;
19231;SDS011;9750;48.730;10.294;2023-07-30T11:18:47;2.97;;;2.67;;
19231;SDS011;9750;48.730;10.294;2023-07-30T11:21:14;3.10;;;2.80;;
19231;SDS011;9750;48.730;10.294;2023-07-30T11:23:44;2.60;;;2.40;;
19231;SDS011;9750;48.730;10.294;2023-07-30T11:26:15;2.40;;;2.17;;
19231;SDS011;9750;48.730;10.294;2023-07-30T11:28:43;2.53;;;2.33;;
19231;SDS011;9750;48.730;10.294;2023-07-30T11:31:11;2.80;;;2.60;;
19231;SDS011;9750;48.730;10.294;2023-07-30T11:33:40;2.93;;;2.60;;
19231;SDS011;9750;48.730;10.294;2023-07-30T11:38:59;2.43;;;2.23;;
19231;SDS011;9750;48.730;10.294;2023-07-30T11:41:28;2.53;;;2.33;;
19231;SDS011;9750;48.730;10.294;2023-07-30T11:43:56;3.20;;;2.80;;
19231;SDS011;9750;48.730;10.294;2023-07-30T11:46:23;2.70;;;2.40;;
19231;SDS011;9750;48.730;10.294;2023-07-30T11:48:51;3.00;;;2.20;;
19231;SDS011;9750;48.730;10.294;2023-07-30T11:51:20;4.37;;;2.67;;
19231;SDS011;9750;48.730;10.294;2023-07-30T11:53:49;2.80;;;2.60;;
19231;SDS011;9750;48.730;10.294;2023-07-30T11:59:41;2.70;;;2.50;;
19231;SDS011;9750;48.730;10.294;2023-07-30T12:02:09;3.05;;;2.38;;
19231;SDS011;9750;48.730;10.294;2023-07-30T12:04:43;3.10;;;2.50;;
19231;SDS011;9750;48.730;10.294;2023-07-30T12:07:10;2.97;;;2.70;;
19231;SDS011;9750;48.730;10.294;2023-07-30T12:09:37;2.40;;;2.20;;
19231;SDS011;9750;48.730;10.294;2023-07-30T12:12:05;3.67;;;2.80;;
19231;SDS011;9750;48.730;10.294;2023-07-30T12:14:43;2.80;;;2.60;;
19231;SDS011;9750;48.730;10.294;2023-07-30T12:17:19;3.15;;;2.70;;
19231;SDS011;9750;48.730;10.294;2023-07-30T12:19:46;2.90;;;2.60;;
19231;SDS011;9750;48.730;10.294;2023-07-30T12:22:13;2.50;;;2.30;;
19231;SDS011;9750;48.730;10.294;2023-07-30T12:24:40;3.78;;;2.75;;
19231;SDS011;9750;48.730;10.294;2023-07-30T12:27:08;3.13;;;2.67;;
19231;SDS011;9750;48.730;10.294;2023-07-30T12:29:35;3.47;;;2.78;;
19231;SDS011;9750;48.730;10.294;2023-07-30T12:32:04;2.97;;;2.60;;
19231;SDS011;9750;48.730;10.294;2023-07-30T12:34:32;2.97;;;2.63;;
19231;SDS011;9750;48.730;10.294;2023-07-30T12:37:05;3.13;;;2.80;;
19231;SDS011;9750;48.730;10.294;2023-07-30T12:39:32;3.00;;;2.70;;
19231;SDS011;9750;48.730;10.294;2023-07-30T12:41:59;3.05;;;2.72;;
19231;SDS011;9750;48.730;10.294;2023-07-30T12:44:27;4.25;;;3.22;;
19231;SDS011;9750;48.730;10.294;2023-07-30T12:46:54;2.87;;;2.60;;
19231;SDS011;9750;48.730;10.294;2023-07-30T12:49:23;2.95;;;2.75;;
19231;SDS011;9750;48.730;10.294;2023-07-30T12:51:50;3.20;;;2.90;;
19231;SDS011;9750;48.730;10.294;2023-07-30T12:54:17;3.17;;;2.83;;
19231;SDS011;9750;48.730;10.294;2023-07-30T12:56:44;3.15;;;2.90;;
19231;SDS011;9750;48.730;10.294;2023-07-30T12:59:11;4.03;;;3.00;;
19231;SDS011;9750;48.730;10.294;2023-07-30T13:01:39;3.63;;;2.80;;
19231;SDS011;9750;48.730;10.294;2023-07-30T13:04:06;3.40;;;2.80;;
19231;SDS011;9750;48.730;10.294;2023-07-30T13:06:35;5.15;;;3.03;;
19231;SDS011;9750;48.730;10.294;2023-07-30T13:09:02;3.37;;;2.80;;
19231;SDS011;9750;48.730;10.294;2023-07-30T13:11:29;5.73;;;3.17;;
19231;SDS011;9750;48.730;10.294;2023-07-30T13:13:57;4.00;;;2.80;;
19231;SDS011;9750;48.730;10.294;2023-07-30T13:16:24;4.03;;;3.38;;
19231;SDS011;9750;48.730;10.294;2023-07-30T13:18:51;4.23;;;2.80;;
19231;SDS011;9750;48.730;10.294;2023-07-30T13:21:22;4.43;;;2.80;;
19231;SDS011;9750;48.730;10.294;2023-07-30T13:23:50;4.83;;;2.90;;
19231;SDS011;9750;48.730;10.294;2023-07-30T13:26:18;4.40;;;2.90;;
19231;SDS011;9750;48.730;10.294;2023-07-30T13:28:45;3.70;;;2.60;;
19231;SDS011;9750;48.730;10.294;2023-07-30T13:31:13;3.35;;;2.92;;
19231;SDS011;9750;48.730;10.294;2023-07-30T13:33:40;3.75;;;2.90;;
19231;SDS011;9750;48.730;10.294;2023-07-30T13:36:07;2.83;;;2.63;;
19231;SDS011;9750;48.730;10.294;2023-07-30T13:38:39;2.65;;;2.45;;
19231;SDS011;9750;48.730;10.294;2023-07-30T13:41:09;3.07;;;2.60;;
19231;SDS011;9750;48.730;10.294;2023-07-30T13:43:37;3.80;;;2.80;;
19231;SDS011;9750;48.730;10.294;2023-07-30T13:46:04;3.00;;;2.70;;
19231;SDS011;9750;48.730;10.294;2023-07-30T13:48:31;2.90;;;2.70;;
19231;SDS011;9750;48.730;10.294;2023-07-30T13:50:58;4.32;;;2.90;;
19231;SDS011;9750;48.730;10.294;2023-07-30T13:53:26;3.22;;;2.65;;
19231;SDS011;9750;48.730;10.294;2023-07-30T13:55:53;4.07;;;2.72;;
19231;SDS011;9750;48.730;10.294;2023-07-30T13:58:22;2.92;;;2.60;;
19231;SDS011;9750;48.730;10.294;2023-07-30T14:00:49;3.72;;;2.90;;
19231;SDS011;9750;48.730;10.294;2023-07-30T14:03:19;2.67;;;2.47;;
19231;SDS011;9750;48.730;10.294;2023-07-30T14:05:47;3.05;;;2.42;;
19231;SDS011;9750;48.730;10.294;2023-07-30T14:08:14;4.38;;;2.72;;
19231;SDS011;9750;48.730;10.294;2023-07-30T14:10:41;3.10;;;2.72;;
19231;SDS011;9750;48.730;10.294;2023-07-30T14:13:08;2.88;;;2.53;;
19231;SDS011;9750;48.730;10.294;2023-07-30T14:15:37;3.10;;;2.80;;
19231;SDS011;9750;48.730;10.294;2023-07-30T14:18:04;3.17;;;2.67;;
19231;SDS011;9750;48.730;10.294;2023-07-30T14:20:31;4.03;;;2.67;;
19231;SDS011;9750;48.730;10.294;2023-07-30T14:23:00;5.38;;;2.70;;
19231;SDS011;9750;48.730;10.294;2023-07-30T14:25:29;3.58;;;2.83;;
19231;SDS011;9750;48.730;10.294;2023-07-30T14:27:57;3.60;;;2.60;;
19231;SDS011;9750;48.730;10.294;2023-07-30T14:30:24;5.03;;;2.85;;
19231;SDS011;9750;48.730;10.294;2023-07-30T14:32:53;2.75;;;2.55;;
19231;SDS011;9750;48.730;10.294;2023-07-30T14:35:20;4.63;;;2.72;;
19231;SDS011;9750;48.730;10.294;2023-07-30T14:37:48;3.88;;;2.60;;
19231;SDS011;9750;48.730;10.294;2023-07-30T14:40:15;3.65;;;2.63;;
19231;SDS011;9750;48.730;10.294;2023-07-30T14:42:42;3.40;;;2.50;;
19231;SDS011;9750;48.730;10.294;2023-07-30T14:45:10;2.95;;;2.75;;
19231;SDS011;9750;48.730;10.294;2023-07-30T14:47:37;3.78;;;2.47;;
19231;SDS011;9750;48.730;10.294;2023-07-30T14:50:06;4.70;;;2.67;;
19231;SDS011;9750;48.730;10.294;2023-07-30T14:52:34;4.30;;;2.65;;
19231;SDS011;9750;48.730;10.294;2023-07-30T14:55:01;3.05;;;2.67;;
19231;SDS011;9750;48.730;10.294;2023-07-30T14:57:29;3.60;;;2.70;;
19231;SDS011;9750;48.730;10.294;2023-07-30T14:59:58;3.25;;;2.45;;
19231;SDS011;9750;48.730;10.294;2023-07-30T15:02:25;3.60;;;2.40;;
19231;SDS011;9750;48.730;10.294;2023-07-30T15:04:53;4.95;;;2.50;;
19231;SDS011;9750;48.730;10.294;2023-07-30T15:07:22;3.58;;;2.47;;
19231;SDS011;9750;48.730;10.294;2023-07-30T15:09:51;3.20;;;2.90;;
19231;SDS011;9750;48.730;10.294;2023-07-30T15:12:19;3.10;;;2.85;;